Onweer radar Meer informatie blitzortung!


Regen radar Meer informatie rain snow radar



METAR rapporten vliegvelden

   
EHRD - Rotterdam
Gewijzigd: 25-01-2020 08:55
Nevel, Bewolking  
Nevel, Bewolking  
   Wind: Zuiden 11 km/h
Wind: Zuiden 11 km/h
Temperatuur: 2°C
Voelt als: -3°C
Dauwpunt: 1°C
Vochtigheid: 93%
Barometer: 1021 hPa
Bewolking: Overcast
Zicht: 5 km
Bewolking: Grotendeels bewolkt 700 ft,
Grotendeels bewolkt 800 ft,
Bewolking 2200 ft
EHRD 250755Z AUTO 17011KT 5000 BR BKN007 BKN008 OVC022 02/01 Q1021 NOSIG
EBAW - Antwerpen
Gewijzigd: 25-01-2020 08:50
Nevel, Bewolking  
Nevel, Bewolking  
   Wind: ZZW 3 km/h
Wind: ZZW 3 km/h
Temperatuur: 0°C
Voelt als: -2°C
Dauwpunt: -1°C
Vochtigheid: 93%
Barometer: 1022 hPa
Bewolking: Overcast
Zicht: 3 km
Bewolking: Bewolking 500 ft
EBAW 250750Z 20003KT 100V230 2500 BR OVC005 00/M01 Q1022 NOSIG
EHAM - Amsterdam
Gewijzigd: 25-01-2020 08:55
Nevel, Grotendeels bewolkt  
Nevel, Grotendeels bewolkt  
   Wind: Zuiden 10 km/h
Wind: Zuiden 10 km/h
Temperatuur: 3°C
Voelt als: -1°C
Dauwpunt: 2°C
Vochtigheid: 93%
Barometer: 1021 hPa
Bewolking: Mostly Cloudy
Zicht: 5 km
Bewolking: Licht bewolkt 500 ft,
Grotendeels bewolkt 600 ft,
Grotendeels bewolkt 2000 ft
EHAM 250755Z 17010KT 5000 BR FEW005 BKN006 BKN020 03/02 Q1021 TEMPO 4000
EHEH - Eindhoven
Gewijzigd: 25-01-2020 08:55
Nevel, Bewolking  
Nevel, Bewolking  
   Wind: Zuiden 3 km/h
Wind: Zuiden 3 km/h
Temperatuur: 0°C
Voelt als: -2°C
Dauwpunt: -1°C
Vochtigheid: 93%
Barometer: 1022 hPa
Bewolking: Overcast
Zicht: 2 km
Bewolking: Gedeeltelijk bewolkt 200 ft,
Bewolking 300 ft
EHEH 250755Z AUTO 19003KT 110V210 2000 R21/1800N BR SCT002 OVC003 M00/M01 Q1022 AMB 18005KT 2000 BR OVC003 TEMPO BKN002 OVC003
  

Script ontwikkeld door  Saratoga-weather.org Aangepast voor de template door  Weerstation Leuven

U vindt ons ook hier:

Het Weer Aktueel

Apparatuur in gebruik:

Weerstation
Davis VP2

Weerprogramma
Cumulus

Weercomputer
Pipo X9 with Windows 10

Davis VP2

Cumulus

Pipo X9 with Windows 10